Metar z połowy godziny Komunikat METAR ze strony awiacja.imgw.pl Metar G30 EPMO METAR EPMO 200230Z VRB02KT 4100 BR NSC 16/16 Q1016 =